sensor_id;sensor_type;location;lat;lon;timestamp;temperature;humidity
5246;DHT22;54412;51.206;6.888;2023-07-09T00:00:47;24.50;99.90
5246;DHT22;54412;51.206;6.888;2023-07-09T00:03:14;24.50;99.90
5246;DHT22;54412;51.206;6.888;2023-07-09T00:05:41;24.60;99.90
5246;DHT22;54412;51.206;6.888;2023-07-09T00:10:57;24.50;99.90
5246;DHT22;54412;51.206;6.888;2023-07-09T00:13:25;24.50;99.90
5246;DHT22;54412;51.206;6.888;2023-07-09T00:16:01;24.60;99.90
5246;DHT22;54412;51.206;6.888;2023-07-09T00:18:36;24.50;99.90
5246;DHT22;54412;51.206;6.888;2023-07-09T00:21:01;24.50;99.90
5246;DHT22;54412;51.206;6.888;2023-07-09T00:23:27;24.50;99.90
5246;DHT22;54412;51.206;6.888;2023-07-09T00:25:53;24.40;99.90
5246;DHT22;54412;51.206;6.888;2023-07-09T00:28:19;24.40;99.90
5246;DHT22;54412;51.206;6.888;2023-07-09T00:30:46;24.50;99.90
5246;DHT22;54412;51.206;6.888;2023-07-09T00:33:14;24.40;99.90
5246;DHT22;54412;51.206;6.888;2023-07-09T00:35:42;24.40;99.90
5246;DHT22;54412;51.206;6.888;2023-07-09T00:38:22;24.40;99.90
5246;DHT22;54412;51.206;6.888;2023-07-09T00:41:03;24.40;99.90
5246;DHT22;54412;51.206;6.888;2023-07-09T00:43:43;24.30;99.90
5246;DHT22;54412;51.206;6.888;2023-07-09T00:51:23;24.40;99.90
5246;DHT22;54412;51.206;6.888;2023-07-09T00:53:58;24.30;99.90
5246;DHT22;54412;51.206;6.888;2023-07-09T00:56:40;24.30;99.90
5246;DHT22;54412;51.206;6.888;2023-07-09T00:59:15;24.30;99.90
5246;DHT22;54412;51.206;6.888;2023-07-09T01:01:46;24.30;99.90
5246;DHT22;54412;51.206;6.888;2023-07-09T01:04:15;24.20;99.90
5246;DHT22;54412;51.206;6.888;2023-07-09T01:06:49;24.30;99.90
5246;DHT22;54412;51.206;6.888;2023-07-09T01:09:17;24.30;99.90
5246;DHT22;54412;51.206;6.888;2023-07-09T01:11:44;24.30;99.90
5246;DHT22;54412;51.206;6.888;2023-07-09T01:14:12;24.30;99.90
5246;DHT22;54412;51.206;6.888;2023-07-09T01:16:50;24.30;99.90
5246;DHT22;54412;51.206;6.888;2023-07-09T01:19:27;24.20;99.90
5246;DHT22;54412;51.206;6.888;2023-07-09T01:21:59;24.20;99.90
5246;DHT22;54412;51.206;6.888;2023-07-09T01:24:55;24.20;99.90
5246;DHT22;54412;51.206;6.888;2023-07-09T01:27:27;24.20;99.90
5246;DHT22;54412;51.206;6.888;2023-07-09T01:29:57;24.10;99.90
5246;DHT22;54412;51.206;6.888;2023-07-09T01:32:25;24.10;99.90
5246;DHT22;54412;51.206;6.888;2023-07-09T01:34:53;24.20;99.90
5246;DHT22;54412;51.206;6.888;2023-07-09T01:37:24;24.20;99.90
5246;DHT22;54412;51.206;6.888;2023-07-09T01:39:52;24.10;99.90
5246;DHT22;54412;51.206;6.888;2023-07-09T01:42:20;24.10;99.90
5246;DHT22;54412;51.206;6.888;2023-07-09T01:44:49;24.10;99.90
5246;DHT22;54412;51.206;6.888;2023-07-09T01:47:16;24.10;99.90
5246;DHT22;54412;51.206;6.888;2023-07-09T01:49:42;24.20;99.90
5246;DHT22;54412;51.206;6.888;2023-07-09T01:52:12;24.20;99.90
5246;DHT22;54412;51.206;6.888;2023-07-09T01:54:42;24.20;99.90
5246;DHT22;54412;51.206;6.888;2023-07-09T01:57:20;24.10;99.90
5246;DHT22;54412;51.206;6.888;2023-07-09T01:59:52;24.10;99.90
5246;DHT22;54412;51.206;6.888;2023-07-09T02:02:20;24.10;99.90
5246;DHT22;54412;51.206;6.888;2023-07-09T02:04:52;24.00;99.90
5246;DHT22;54412;51.206;6.888;2023-07-09T02:07:20;23.80;99.90
5246;DHT22;54412;51.206;6.888;2023-07-09T02:09:49;23.90;99.90
5246;DHT22;54412;51.206;6.888;2023-07-09T02:12:16;23.80;99.90
5246;DHT22;54412;51.206;6.888;2023-07-09T02:14:43;23.90;99.90
5246;DHT22;54412;51.206;6.888;2023-07-09T02:17:12;23.80;99.90
5246;DHT22;54412;51.206;6.888;2023-07-09T02:19:39;23.90;99.90
5246;DHT22;54412;51.206;6.888;2023-07-09T02:22:06;23.80;99.90
5246;DHT22;54412;51.206;6.888;2023-07-09T02:24:33;23.70;99.90
5246;DHT22;54412;51.206;6.888;2023-07-09T02:27:00;23.70;99.90
5246;DHT22;54412;51.206;6.888;2023-07-09T02:29:28;23.70;99.90
5246;DHT22;54412;51.206;6.888;2023-07-09T02:31:57;23.80;99.90
5246;DHT22;54412;51.206;6.888;2023-07-09T02:34:25;23.70;99.90
5246;DHT22;54412;51.206;6.888;2023-07-09T02:36:52;23.70;99.90
5246;DHT22;54412;51.206;6.888;2023-07-09T02:39:19;23.70;99.90
5246;DHT22;54412;51.206;6.888;2023-07-09T02:41:46;23.60;99.90
5246;DHT22;54412;51.206;6.888;2023-07-09T02:44:12;23.60;99.90
5246;DHT22;54412;51.206;6.888;2023-07-09T02:46:38;23.60;99.90
5246;DHT22;54412;51.206;6.888;2023-07-09T02:49:05;23.60;99.90
5246;DHT22;54412;51.206;6.888;2023-07-09T02:51:32;23.50;99.90
5246;DHT22;54412;51.206;6.888;2023-07-09T02:54:00;23.60;99.90
5246;DHT22;54412;51.206;6.888;2023-07-09T02:56:27;23.50;99.90
5246;DHT22;54412;51.206;6.888;2023-07-09T02:58:53;23.50;99.90
5246;DHT22;54412;51.206;6.888;2023-07-09T03:01:19;23.50;99.90
5246;DHT22;54412;51.206;6.888;2023-07-09T03:03:51;23.50;99.90
5246;DHT22;54412;51.206;6.888;2023-07-09T03:06:20;23.50;99.90
5246;DHT22;54412;51.206;6.888;2023-07-09T03:08:46;23.50;99.90
5246;DHT22;54412;51.206;6.888;2023-07-09T03:11:13;23.50;99.90
5246;DHT22;54412;51.206;6.888;2023-07-09T03:13:40;23.50;99.90
5246;DHT22;54412;51.206;6.888;2023-07-09T03:16:06;23.50;99.90
5246;DHT22;54412;51.206;6.888;2023-07-09T03:18:32;23.50;99.90
5246;DHT22;54412;51.206;6.888;2023-07-09T03:20:58;23.40;99.90
5246;DHT22;54412;51.206;6.888;2023-07-09T03:23:25;23.40;99.90
5246;DHT22;54412;51.206;6.888;2023-07-09T03:25:51;23.40;99.90
5246;DHT22;54412;51.206;6.888;2023-07-09T03:28:16;23.40;99.90
5246;DHT22;54412;51.206;6.888;2023-07-09T03:30:46;23.50;99.90
5246;DHT22;54412;51.206;6.888;2023-07-09T03:33:15;23.40;99.90
5246;DHT22;54412;51.206;6.888;2023-07-09T03:35:42;23.50;99.90
5246;DHT22;54412;51.206;6.888;2023-07-09T03:38:09;23.40;99.90
5246;DHT22;54412;51.206;6.888;2023-07-09T03:40:36;23.40;99.90
5246;DHT22;54412;51.206;6.888;2023-07-09T03:43:03;23.30;99.90
5246;DHT22;54412;51.206;6.888;2023-07-09T03:45:35;23.40;99.90
5246;DHT22;54412;51.206;6.888;2023-07-09T03:48:02;23.30;99.90
5246;DHT22;54412;51.206;6.888;2023-07-09T03:50:29;23.20;99.90
5246;DHT22;54412;51.206;6.888;2023-07-09T03:52:55;23.30;99.90
5246;DHT22;54412;51.206;6.888;2023-07-09T03:55:20;23.20;99.90
5246;DHT22;54412;51.206;6.888;2023-07-09T03:57:46;23.30;99.90
5246;DHT22;54412;51.206;6.888;2023-07-09T04:00:13;23.30;99.90
5246;DHT22;54412;51.206;6.888;2023-07-09T04:02:40;23.40;99.90
5246;DHT22;54412;51.206;6.888;2023-07-09T04:05:09;23.40;99.90
5246;DHT22;54412;51.206;6.888;2023-07-09T04:07:35;23.30;99.90
5246;DHT22;54412;51.206;6.888;2023-07-09T04:10:03;23.40;99.90
5246;DHT22;54412;51.206;6.888;2023-07-09T04:12:29;23.40;99.90
5246;DHT22;54412;51.206;6.888;2023-07-09T04:14:55;23.40;99.90
5246;DHT22;54412;51.206;6.888;2023-07-09T04:17:20;23.40;99.90
5246;DHT22;54412;51.206;6.888;2023-07-09T04:19:49;23.40;99.90
5246;DHT22;54412;51.206;6.888;2023-07-09T04:22:15;23.40;99.90
5246;DHT22;54412;51.206;6.888;2023-07-09T04:24:41;23.40;99.90
5246;DHT22;54412;51.206;6.888;2023-07-09T04:27:08;23.40;99.90
5246;DHT22;54412;51.206;6.888;2023-07-09T04:29:34;23.40;99.90
5246;DHT22;54412;51.206;6.888;2023-07-09T04:32:01;23.40;99.90
5246;DHT22;54412;51.206;6.888;2023-07-09T04:34:27;23.50;99.90
5246;DHT22;54412;51.206;6.888;2023-07-09T04:36:53;23.50;99.90
5246;DHT22;54412;51.206;6.888;2023-07-09T04:39:19;23.50;99.90
5246;DHT22;54412;51.206;6.888;2023-07-09T04:41:44;23.50;99.90
5246;DHT22;54412;51.206;6.888;2023-07-09T04:44:10;23.50;99.90
5246;DHT22;54412;51.206;6.888;2023-07-09T04:46:36;23.50;99.90
5246;DHT22;54412;51.206;6.888;2023-07-09T04:49:03;23.50;99.90
5246;DHT22;54412;51.206;6.888;2023-07-09T04:51:29;23.50;99.90
5246;DHT22;54412;51.206;6.888;2023-07-09T04:53:54;23.60;99.90
5246;DHT22;54412;51.206;6.888;2023-07-09T04:56:20;23.60;99.90
5246;DHT22;54412;51.206;6.888;2023-07-09T04:58:46;23.60;99.90
5246;DHT22;54412;51.206;6.888;2023-07-09T05:01:11;23.60;99.90
5246;DHT22;54412;51.206;6.888;2023-07-09T05:03:37;23.70;99.90
5246;DHT22;54412;51.206;6.888;2023-07-09T05:06:04;23.70;99.90
5246;DHT22;54412;51.206;6.888;2023-07-09T05:08:30;23.70;99.90
5246;DHT22;54412;51.206;6.888;2023-07-09T05:10:57;23.70;99.90
5246;DHT22;54412;51.206;6.888;2023-07-09T05:13:26;23.70;99.90
5246;DHT22;54412;51.206;6.888;2023-07-09T05:15:52;23.70;99.90
5246;DHT22;54412;51.206;6.888;2023-07-09T05:18:18;23.80;99.90
5246;DHT22;54412;51.206;6.888;2023-07-09T05:20:46;23.80;99.90
5246;DHT22;54412;51.206;6.888;2023-07-09T05:23:12;23.80;99.90
5246;DHT22;54412;51.206;6.888;2023-07-09T05:25:38;23.80;99.90
5246;DHT22;54412;51.206;6.888;2023-07-09T05:28:04;23.90;99.90
5246;DHT22;54412;51.206;6.888;2023-07-09T05:30:31;24.00;99.90
5246;DHT22;54412;51.206;6.888;2023-07-09T05:32:57;24.00;99.90
5246;DHT22;54412;51.206;6.888;2023-07-09T05:35:27;24.00;99.90
5246;DHT22;54412;51.206;6.888;2023-07-09T05:37:53;24.00;99.90
5246;DHT22;54412;51.206;6.888;2023-07-09T05:40:20;24.00;99.90
5246;DHT22;54412;51.206;6.888;2023-07-09T05:42:47;24.10;99.90
5246;DHT22;54412;51.206;6.888;2023-07-09T05:45:15;24.30;99.90
5246;DHT22;54412;51.206;6.888;2023-07-09T05:47:41;24.30;99.90
5246;DHT22;54412;51.206;6.888;2023-07-09T05:50:07;24.30;99.90
5246;DHT22;54412;51.206;6.888;2023-07-09T05:52:33;24.40;99.90
5246;DHT22;54412;51.206;6.888;2023-07-09T05:54:59;24.50;99.90
5246;DHT22;54412;51.206;6.888;2023-07-09T05:57:25;24.50;99.90
5246;DHT22;54412;51.206;6.888;2023-07-09T05:59:51;24.60;99.90
5246;DHT22;54412;51.206;6.888;2023-07-09T06:02:19;24.70;99.90
5246;DHT22;54412;51.206;6.888;2023-07-09T06:04:46;24.70;99.90
5246;DHT22;54412;51.206;6.888;2023-07-09T06:07:15;24.70;99.90
5246;DHT22;54412;51.206;6.888;2023-07-09T06:09:41;24.80;99.90
5246;DHT22;54412;51.206;6.888;2023-07-09T06:12:08;24.80;99.90
5246;DHT22;54412;51.206;6.888;2023-07-09T06:14:34;24.90;99.90
5246;DHT22;54412;51.206;6.888;2023-07-09T06:17:00;24.90;99.90
5246;DHT22;54412;51.206;6.888;2023-07-09T06:19:27;25.00;99.90
5246;DHT22;54412;51.206;6.888;2023-07-09T06:21:52;25.10;99.90
5246;DHT22;54412;51.206;6.888;2023-07-09T06:24:18;25.10;99.90
5246;DHT22;54412;51.206;6.888;2023-07-09T06:26:44;25.20;99.90
5246;DHT22;54412;51.206;6.888;2023-07-09T06:29:09;25.30;99.90
5246;DHT22;54412;51.206;6.888;2023-07-09T06:31:35;25.40;99.90
5246;DHT22;54412;51.206;6.888;2023-07-09T06:34:03;25.50;99.90
5246;DHT22;54412;51.206;6.888;2023-07-09T06:36:28;25.60;99.90
5246;DHT22;54412;51.206;6.888;2023-07-09T06:38:54;25.70;99.90
5246;DHT22;54412;51.206;6.888;2023-07-09T06:41:20;25.70;99.90
5246;DHT22;54412;51.206;6.888;2023-07-09T06:43:46;25.80;99.90
5246;DHT22;54412;51.206;6.888;2023-07-09T06:46:13;25.90;99.90
5246;DHT22;54412;51.206;6.888;2023-07-09T06:48:40;25.90;99.90
5246;DHT22;54412;51.206;6.888;2023-07-09T06:51:06;25.90;99.90
5246;DHT22;54412;51.206;6.888;2023-07-09T06:53:33;26.00;99.90
5246;DHT22;54412;51.206;6.888;2023-07-09T06:55:58;26.10;99.90
5246;DHT22;54412;51.206;6.888;2023-07-09T06:58:27;26.10;99.90
5246;DHT22;54412;51.206;6.888;2023-07-09T07:00:54;26.10;99.90
5246;DHT22;54412;51.206;6.888;2023-07-09T07:03:21;26.10;99.90
5246;DHT22;54412;51.206;6.888;2023-07-09T07:05:50;26.20;99.90
5246;DHT22;54412;51.206;6.888;2023-07-09T07:08:23;26.20;99.90
5246;DHT22;54412;51.206;6.888;2023-07-09T07:10:56;26.40;99.90
5246;DHT22;54412;51.206;6.888;2023-07-09T07:13:35;26.40;99.90
5246;DHT22;54412;51.206;6.888;2023-07-09T07:16:03;26.50;99.90
5246;DHT22;54412;51.206;6.888;2023-07-09T07:18:31;26.50;99.90
5246;DHT22;54412;51.206;6.888;2023-07-09T07:20:56;26.60;99.90
5246;DHT22;54412;51.206;6.888;2023-07-09T07:23:22;26.70;99.90
5246;DHT22;54412;51.206;6.888;2023-07-09T07:25:48;26.70;99.90
5246;DHT22;54412;51.206;6.888;2023-07-09T07:28:15;26.80;99.90
5246;DHT22;54412;51.206;6.888;2023-07-09T07:30:42;26.90;99.90
5246;DHT22;54412;51.206;6.888;2023-07-09T07:33:08;26.90;99.90
5246;DHT22;54412;51.206;6.888;2023-07-09T07:35:34;27.00;99.90
5246;DHT22;54412;51.206;6.888;2023-07-09T07:38:00;27.10;99.90
5246;DHT22;54412;51.206;6.888;2023-07-09T07:40:25;27.20;99.90
5246;DHT22;54412;51.206;6.888;2023-07-09T07:42:51;27.20;99.90
5246;DHT22;54412;51.206;6.888;2023-07-09T07:45:17;27.30;99.90
5246;DHT22;54412;51.206;6.888;2023-07-09T07:47:42;27.40;99.90
5246;DHT22;54412;51.206;6.888;2023-07-09T07:50:09;27.40;99.90
5246;DHT22;54412;51.206;6.888;2023-07-09T07:52:35;27.50;99.90
5246;DHT22;54412;51.206;6.888;2023-07-09T07:55:06;27.60;99.90
5246;DHT22;54412;51.206;6.888;2023-07-09T07:57:33;27.60;99.90
5246;DHT22;54412;51.206;6.888;2023-07-09T07:59:59;27.60;99.90
5246;DHT22;54412;51.206;6.888;2023-07-09T08:02:25;27.70;99.90
5246;DHT22;54412;51.206;6.888;2023-07-09T08:04:51;27.70;99.90
5246;DHT22;54412;51.206;6.888;2023-07-09T08:07:18;27.80;99.90
5246;DHT22;54412;51.206;6.888;2023-07-09T08:09:45;28.00;99.90
5246;DHT22;54412;51.206;6.888;2023-07-09T08:12:12;28.00;99.90
5246;DHT22;54412;51.206;6.888;2023-07-09T08:14:40;28.00;99.90
5246;DHT22;54412;51.206;6.888;2023-07-09T08:17:07;28.10;99.90
5246;DHT22;54412;51.206;6.888;2023-07-09T08:19:47;28.10;99.90
5246;DHT22;54412;51.206;6.888;2023-07-09T08:22:16;28.20;99.90
5246;DHT22;54412;51.206;6.888;2023-07-09T08:24:42;28.20;99.90
5246;DHT22;54412;51.206;6.888;2023-07-09T08:27:09;28.30;99.90
5246;DHT22;54412;51.206;6.888;2023-07-09T08:29:35;28.40;99.90
5246;DHT22;54412;51.206;6.888;2023-07-09T08:32:01;28.40;99.90
5246;DHT22;54412;51.206;6.888;2023-07-09T08:34:28;28.50;99.90
5246;DHT22;54412;51.206;6.888;2023-07-09T08:36:54;28.50;99.90
5246;DHT22;54412;51.206;6.888;2023-07-09T08:39:20;28.60;99.90
5246;DHT22;54412;51.206;6.888;2023-07-09T08:41:49;28.70;99.90
5246;DHT22;54412;51.206;6.888;2023-07-09T08:47:47;28.80;99.90
5246;DHT22;54412;51.206;6.888;2023-07-09T08:50:36;29.00;99.90
5246;DHT22;54412;51.206;6.888;2023-07-09T08:53:13;29.10;99.90
5246;DHT22;54412;51.206;6.888;2023-07-09T08:55:45;29.20;99.90
5246;DHT22;54412;51.206;6.888;2023-07-09T08:58:28;29.30;99.90
5246;DHT22;54412;51.206;6.888;2023-07-09T09:01:05;29.40;99.90
5246;DHT22;54412;51.206;6.888;2023-07-09T09:03:49;29.50;99.90
5246;DHT22;54412;51.206;6.888;2023-07-09T09:06:20;29.60;99.90
5246;DHT22;54412;51.206;6.888;2023-07-09T09:08:58;29.60;99.90
5246;DHT22;54412;51.206;6.888;2023-07-09T09:11:44;29.70;99.90
5246;DHT22;54412;51.206;6.888;2023-07-09T09:14:34;29.70;99.90
5246;DHT22;54412;51.206;6.888;2023-07-09T09:17:19;29.80;99.90
5246;DHT22;54412;51.206;6.888;2023-07-09T09:20:08;30.00;99.90
5246;DHT22;54412;51.206;6.888;2023-07-09T09:25:43;30.20;99.90
5246;DHT22;54412;51.206;6.888;2023-07-09T09:28:15;30.30;99.90
5246;DHT22;54412;51.206;6.888;2023-07-09T09:30:40;30.30;99.90
5246;DHT22;54412;51.206;6.888;2023-07-09T09:33:08;30.40;99.90
5246;DHT22;54412;51.206;6.888;2023-07-09T09:35:42;30.40;99.90
5246;DHT22;54412;51.206;6.888;2023-07-09T09:38:16;30.60;99.90
5246;DHT22;54412;51.206;6.888;2023-07-09T09:40:47;30.80;99.90
5246;DHT22;54412;51.206;6.888;2023-07-09T09:43:19;30.70;99.90
5246;DHT22;54412;51.206;6.888;2023-07-09T09:45:48;30.90;99.90
5246;DHT22;54412;51.206;6.888;2023-07-09T09:48:26;30.90;99.90
5246;DHT22;54412;51.206;6.888;2023-07-09T09:50:58;30.90;99.30
5246;DHT22;54412;51.206;6.888;2023-07-09T09:53:28;31.00;99.10
5246;DHT22;54412;51.206;6.888;2023-07-09T09:55:56;31.20;99.60
5246;DHT22;54412;51.206;6.888;2023-07-09T09:58:29;31.30;98.50
5246;DHT22;54412;51.206;6.888;2023-07-09T10:00:57;31.40;98.20
5246;DHT22;54412;51.206;6.888;2023-07-09T10:03:35;31.50;97.30
5246;DHT22;54412;51.206;6.888;2023-07-09T10:06:52;31.50;97.30
5246;DHT22;54412;51.206;6.888;2023-07-09T10:12:36;31.50;96.70
5246;DHT22;54412;51.206;6.888;2023-07-09T10:15:59;31.60;97.20
5246;DHT22;54412;51.206;6.888;2023-07-09T10:18:51;31.90;96.90
5246;DHT22;54412;51.206;6.888;2023-07-09T10:21:28;31.80;96.60
5246;DHT22;54412;51.206;6.888;2023-07-09T10:26:46;32.00;96.70
5246;DHT22;54412;51.206;6.888;2023-07-09T10:30:13;32.00;96.00
5246;DHT22;54412;51.206;6.888;2023-07-09T10:35:27;32.10;95.70
5246;DHT22;54412;51.206;6.888;2023-07-09T10:38:24;32.30;94.50
5246;DHT22;54412;51.206;6.888;2023-07-09T10:41:09;32.30;94.10
5246;DHT22;54412;51.206;6.888;2023-07-09T10:43:44;32.30;93.30
5246;DHT22;54412;51.206;6.888;2023-07-09T10:46:24;32.50;94.20
5246;DHT22;54412;51.206;6.888;2023-07-09T10:48:54;32.60;94.40
5246;DHT22;54412;51.206;6.888;2023-07-09T10:51:32;32.50;93.60
5246;DHT22;54412;51.206;6.888;2023-07-09T10:54:29;32.50;93.00
5246;DHT22;54412;51.206;6.888;2023-07-09T10:57:09;32.60;93.90
5246;DHT22;54412;51.206;6.888;2023-07-09T10:59:41;32.80;92.70
5246;DHT22;54412;51.206;6.888;2023-07-09T11:05:00;32.90;92.60
5246;DHT22;54412;51.206;6.888;2023-07-09T11:07:28;33.00;92.30
5246;DHT22;54412;51.206;6.888;2023-07-09T11:10:29;33.00;92.50
5246;DHT22;54412;51.206;6.888;2023-07-09T11:13:23;32.90;92.90
5246;DHT22;54412;51.206;6.888;2023-07-09T11:15:56;33.00;93.20
5246;DHT22;54412;51.206;6.888;2023-07-09T11:18:26;33.00;93.70
5246;DHT22;54412;51.206;6.888;2023-07-09T11:23:38;33.30;88.60
5246;DHT22;54412;51.206;6.888;2023-07-09T11:26:28;33.30;89.50
5246;DHT22;54412;51.206;6.888;2023-07-09T11:31:38;33.20;90.50
5246;DHT22;54412;51.206;6.888;2023-07-09T11:34:15;33.20;90.90
5246;DHT22;54412;51.206;6.888;2023-07-09T11:39:30;33.50;91.40
5246;DHT22;54412;51.206;6.888;2023-07-09T11:45:10;33.50;90.20
5246;DHT22;54412;51.206;6.888;2023-07-09T11:47:44;33.40;90.00
5246;DHT22;54412;51.206;6.888;2023-07-09T11:50:30;33.50;90.40
5246;DHT22;54412;51.206;6.888;2023-07-09T11:53:13;33.50;90.40
5246;DHT22;54412;51.206;6.888;2023-07-09T11:55:44;33.40;90.90
5246;DHT22;54412;51.206;6.888;2023-07-09T11:58:14;33.40;90.90
5246;DHT22;54412;51.206;6.888;2023-07-09T12:00:47;33.40;90.30
5246;DHT22;54412;51.206;6.888;2023-07-09T12:03:18;33.50;90.20
5246;DHT22;54412;51.206;6.888;2023-07-09T12:05:50;33.50;90.90
5246;DHT22;54412;51.206;6.888;2023-07-09T12:08:25;33.50;90.60
5246;DHT22;54412;51.206;6.888;2023-07-09T12:10:54;33.70;90.50
5246;DHT22;54412;51.206;6.888;2023-07-09T12:13:20;33.80;90.20
5246;DHT22;54412;51.206;6.888;2023-07-09T12:15:46;33.70;90.30
5246;DHT22;54412;51.206;6.888;2023-07-09T12:18:14;33.50;90.50
5246;DHT22;54412;51.206;6.888;2023-07-09T12:20:44;33.70;90.40
5246;DHT22;54412;51.206;6.888;2023-07-09T12:23:19;33.80;90.50
5246;DHT22;54412;51.206;6.888;2023-07-09T12:25:50;33.90;90.30
5246;DHT22;54412;51.206;6.888;2023-07-09T12:28:17;34.00;90.30
5246;DHT22;54412;51.206;6.888;2023-07-09T12:30:46;34.00;89.50
5246;DHT22;54412;51.206;6.888;2023-07-09T12:33:21;34.00;89.20
5246;DHT22;54412;51.206;6.888;2023-07-09T12:36:00;33.90;88.10
5246;DHT22;54412;51.206;6.888;2023-07-09T12:38:32;33.90;88.60
5246;DHT22;54412;51.206;6.888;2023-07-09T12:41:22;33.90;88.10
5246;DHT22;54412;51.206;6.888;2023-07-09T12:43:52;33.90;88.50
5246;DHT22;54412;51.206;6.888;2023-07-09T12:46:20;33.90;89.10
5246;DHT22;54412;51.206;6.888;2023-07-09T12:48:48;33.80;88.10
5246;DHT22;54412;51.206;6.888;2023-07-09T12:51:20;34.00;88.90
5246;DHT22;54412;51.206;6.888;2023-07-09T12:54:18;33.80;88.90
5246;DHT22;54412;51.206;6.888;2023-07-09T12:56:46;33.70;88.00
5246;DHT22;54412;51.206;6.888;2023-07-09T12:59:20;33.60;87.40
5246;DHT22;54412;51.206;6.888;2023-07-09T13:02:37;33.40;88.70
5246;DHT22;54412;51.206;6.888;2023-07-09T13:04:45;33.40;89.70
5246;DHT22;54412;51.206;6.888;2023-07-09T13:09:50;33.10;89.70
5246;DHT22;54412;51.206;6.888;2023-07-09T13:12:17;33.10;89.30
5246;DHT22;54412;51.206;6.888;2023-07-09T13:14:52;32.90;88.40
5246;DHT22;54412;51.206;6.888;2023-07-09T13:17:19;32.70;89.20
5246;DHT22;54412;51.206;6.888;2023-07-09T13:19:45;32.70;89.60
5246;DHT22;54412;51.206;6.888;2023-07-09T13:22:15;32.60;89.30
5246;DHT22;54412;51.206;6.888;2023-07-09T13:24:42;32.50;89.50
5246;DHT22;54412;51.206;6.888;2023-07-09T13:27:11;32.40;90.20
5246;DHT22;54412;51.206;6.888;2023-07-09T13:29:39;32.30;90.50
5246;DHT22;54412;51.206;6.888;2023-07-09T13:32:14;32.30;90.50
5246;DHT22;54412;51.206;6.888;2023-07-09T13:34:41;32.30;90.50
5246;DHT22;54412;51.206;6.888;2023-07-09T13:37:12;32.20;90.80
5246;DHT22;54412;51.206;6.888;2023-07-09T13:39:40;32.20;90.70
5246;DHT22;54412;51.206;6.888;2023-07-09T13:42:12;32.20;90.80
5246;DHT22;54412;51.206;6.888;2023-07-09T13:44:41;32.10;90.90
5246;DHT22;54412;51.206;6.888;2023-07-09T13:47:15;32.00;90.80
5246;DHT22;54412;51.206;6.888;2023-07-09T13:49:45;31.90;91.40
5246;DHT22;54412;51.206;6.888;2023-07-09T13:52:21;31.80;91.80
5246;DHT22;54412;51.206;6.888;2023-07-09T13:54:51;31.80;92.00
5246;DHT22;54412;51.206;6.888;2023-07-09T13:57:19;31.80;91.70
5246;DHT22;54412;51.206;6.888;2023-07-09T13:59:47;31.70;91.70
5246;DHT22;54412;51.206;6.888;2023-07-09T14:02:23;31.70;92.00
5246;DHT22;54412;51.206;6.888;2023-07-09T14:04:57;31.60;92.10
5246;DHT22;54412;51.206;6.888;2023-07-09T14:07:32;31.40;93.90
5246;DHT22;54412;51.206;6.888;2023-07-09T14:10:01;31.10;95.30
5246;DHT22;54412;51.206;6.888;2023-07-09T14:12:28;30.50;97.70
5246;DHT22;54412;51.206;6.888;2023-07-09T14:14:57;30.30;97.30
5246;DHT22;54412;51.206;6.888;2023-07-09T14:17:25;30.10;99.90
5246;DHT22;54412;51.206;6.888;2023-07-09T14:19:54;29.70;99.90
5246;DHT22;54412;51.206;6.888;2023-07-09T14:25:03;29.20;99.90
5246;DHT22;54412;51.206;6.888;2023-07-09T14:27:30;28.90;99.90
5246;DHT22;54412;51.206;6.888;2023-07-09T14:29:56;28.80;99.90
5246;DHT22;54412;51.206;6.888;2023-07-09T14:32:34;28.70;99.90
5246;DHT22;54412;51.206;6.888;2023-07-09T14:35:10;28.60;99.90
5246;DHT22;54412;51.206;6.888;2023-07-09T14:37:38;28.10;99.90
5246;DHT22;54412;51.206;6.888;2023-07-09T14:40:04;27.70;99.90
5246;DHT22;54412;51.206;6.888;2023-07-09T14:42:30;27.60;99.90
5246;DHT22;54412;51.206;6.888;2023-07-09T14:44:57;27.30;99.90
5246;DHT22;54412;51.206;6.888;2023-07-09T14:47:23;27.20;99.90
5246;DHT22;54412;51.206;6.888;2023-07-09T14:49:50;27.40;99.90
5246;DHT22;54412;51.206;6.888;2023-07-09T14:52:20;27.30;99.90
5246;DHT22;54412;51.206;6.888;2023-07-09T14:54:48;27.30;99.90
5246;DHT22;54412;51.206;6.888;2023-07-09T14:57:21;27.30;99.90
5246;DHT22;54412;51.206;6.888;2023-07-09T14:59:49;27.40;99.90
5246;DHT22;54412;51.206;6.888;2023-07-09T15:02:36;27.30;99.90
5246;DHT22;54412;51.206;6.888;2023-07-09T15:05:12;26.80;99.90
5246;DHT22;54412;51.206;6.888;2023-07-09T15:07:40;26.60;99.90
5246;DHT22;54412;51.206;6.888;2023-07-09T15:10:06;26.20;99.90
5246;DHT22;54412;51.206;6.888;2023-07-09T15:12:37;26.00;99.90
5246;DHT22;54412;51.206;6.888;2023-07-09T15:15:28;26.10;99.90
5246;DHT22;54412;51.206;6.888;2023-07-09T15:17:58;26.30;99.90
5246;DHT22;54412;51.206;6.888;2023-07-09T15:20:29;26.30;99.90
5246;DHT22;54412;51.206;6.888;2023-07-09T15:22:57;26.30;99.90
5246;DHT22;54412;51.206;6.888;2023-07-09T15:25:27;26.30;99.90
5246;DHT22;54412;51.206;6.888;2023-07-09T15:27:53;26.20;99.90
5246;DHT22;54412;51.206;6.888;2023-07-09T15:30:23;26.10;99.90
5246;DHT22;54412;51.206;6.888;2023-07-09T15:32:51;26.00;99.90
5246;DHT22;54412;51.206;6.888;2023-07-09T15:35:20;26.10;99.90
5246;DHT22;54412;51.206;6.888;2023-07-09T15:37:46;25.90;99.90
5246;DHT22;54412;51.206;6.888;2023-07-09T15:40:23;26.00;99.90
5246;DHT22;54412;51.206;6.888;2023-07-09T15:42:52;26.00;99.90
5246;DHT22;54412;51.206;6.888;2023-07-09T15:45:20;26.00;99.90
5246;DHT22;54412;51.206;6.888;2023-07-09T15:47:48;25.80;99.90
5246;DHT22;54412;51.206;6.888;2023-07-09T15:50:20;26.00;99.90
5246;DHT22;54412;51.206;6.888;2023-07-09T15:52:51;25.90;99.90
5246;DHT22;54412;51.206;6.888;2023-07-09T15:55:27;25.90;99.90
5246;DHT22;54412;51.206;6.888;2023-07-09T15:57:54;25.90;99.90
5246;DHT22;54412;51.206;6.888;2023-07-09T16:00:25;26.10;99.90
5246;DHT22;54412;51.206;6.888;2023-07-09T16:02:54;26.30;99.90
5246;DHT22;54412;51.206;6.888;2023-07-09T16:05:26;26.50;99.90
5246;DHT22;54412;51.206;6.888;2023-07-09T16:07:58;26.40;99.90
5246;DHT22;54412;51.206;6.888;2023-07-09T16:10:26;26.40;99.90
5246;DHT22;54412;51.206;6.888;2023-07-09T16:12:57;26.50;99.90
5246;DHT22;54412;51.206;6.888;2023-07-09T16:15:24;26.40;99.90
5246;DHT22;54412;51.206;6.888;2023-07-09T16:17:50;26.40;99.90
5246;DHT22;54412;51.206;6.888;2023-07-09T16:20:22;26.60;99.90
5246;DHT22;54412;51.206;6.888;2023-07-09T16:22:53;26.70;99.90
5246;DHT22;54412;51.206;6.888;2023-07-09T16:25:26;26.70;99.90
5246;DHT22;54412;51.206;6.888;2023-07-09T16:27:57;26.80;99.90
5246;DHT22;54412;51.206;6.888;2023-07-09T16:30:26;26.80;99.90
5246;DHT22;54412;51.206;6.888;2023-07-09T16:32:55;26.80;99.90
5246;DHT22;54412;51.206;6.888;2023-07-09T16:35:26;26.70;99.90
5246;DHT22;54412;51.206;6.888;2023-07-09T16:37:54;26.80;99.90
5246;DHT22;54412;51.206;6.888;2023-07-09T16:40:26;26.80;99.90
5246;DHT22;54412;51.206;6.888;2023-07-09T16:42:55;26.70;99.90
5246;DHT22;54412;51.206;6.888;2023-07-09T16:45:24;26.60;99.90
5246;DHT22;54412;51.206;6.888;2023-07-09T16:47:52;26.70;99.90